sensor_id;sensor_type;location;lat;lon;timestamp;P1;durP1;ratioP1;P2;durP2;ratioP2
7179;SDS011;3631;42.152;24.756;2022-12-24T00:01:36;121.77;;;55.60;;
7179;SDS011;3631;42.152;24.756;2022-12-24T00:04:03;111.57;;;54.17;;
7179;SDS011;3631;42.152;24.756;2022-12-24T00:06:30;105.63;;;53.83;;
7179;SDS011;3631;42.152;24.756;2022-12-24T00:08:57;109.90;;;54.00;;
7179;SDS011;3631;42.152;24.756;2022-12-24T00:11:24;109.00;;;50.03;;
7179;SDS011;3631;42.152;24.756;2022-12-24T00:13:51;95.83;;;49.50;;
7179;SDS011;3631;42.152;24.756;2022-12-24T00:16:19;95.90;;;48.60;;
7179;SDS011;3631;42.152;24.756;2022-12-24T00:18:46;100.80;;;48.53;;
7179;SDS011;3631;42.152;24.756;2022-12-24T00:21:13;93.20;;;47.63;;
7179;SDS011;3631;42.152;24.756;2022-12-24T00:23:41;95.40;;;45.80;;
7179;SDS011;3631;42.152;24.756;2022-12-24T00:26:08;94.20;;;47.00;;
7179;SDS011;3631;42.152;24.756;2022-12-24T00:28:35;79.33;;;43.87;;
7179;SDS011;3631;42.152;24.756;2022-12-24T00:31:06;87.17;;;45.13;;
7179;SDS011;3631;42.152;24.756;2022-12-24T00:33:35;92.83;;;45.80;;
7179;SDS011;3631;42.152;24.756;2022-12-24T00:36:02;88.50;;;44.20;;
7179;SDS011;3631;42.152;24.756;2022-12-24T00:38:30;89.50;;;45.17;;
7179;SDS011;3631;42.152;24.756;2022-12-24T00:40:57;77.80;;;42.10;;
7179;SDS011;3631;42.152;24.756;2022-12-24T00:43:25;88.43;;;42.67;;
7179;SDS011;3631;42.152;24.756;2022-12-24T00:45:53;84.80;;;42.57;;
7179;SDS011;3631;42.152;24.756;2022-12-24T00:48:20;89.00;;;42.73;;
7179;SDS011;3631;42.152;24.756;2022-12-24T00:50:48;77.37;;;40.90;;
7179;SDS011;3631;42.152;24.756;2022-12-24T00:53:17;77.93;;;41.40;;
7179;SDS011;3631;42.152;24.756;2022-12-24T00:55:44;85.37;;;40.40;;
7179;SDS011;3631;42.152;24.756;2022-12-24T00:58:11;87.10;;;41.73;;
7179;SDS011;3631;42.152;24.756;2022-12-24T01:00:38;76.20;;;40.17;;
7179;SDS011;3631;42.152;24.756;2022-12-24T01:03:05;85.63;;;42.13;;
7179;SDS011;3631;42.152;24.756;2022-12-24T01:05:32;80.10;;;41.23;;
7179;SDS011;3631;42.152;24.756;2022-12-24T01:08:00;80.60;;;41.27;;
7179;SDS011;3631;42.152;24.756;2022-12-24T01:10:27;75.17;;;40.27;;
7179;SDS011;3631;42.152;24.756;2022-12-24T01:12:54;80.77;;;40.87;;
7179;SDS011;3631;42.152;24.756;2022-12-24T01:15:21;77.97;;;39.23;;
7179;SDS011;3631;42.152;24.756;2022-12-24T01:17:48;72.67;;;39.43;;
7179;SDS011;3631;42.152;24.756;2022-12-24T01:20:15;77.97;;;41.10;;
7179;SDS011;3631;42.152;24.756;2022-12-24T01:22:42;72.77;;;40.83;;
7179;SDS011;3631;42.152;24.756;2022-12-24T01:25:10;79.67;;;39.40;;
7179;SDS011;3631;42.152;24.756;2022-12-24T01:27:38;78.87;;;38.83;;
7179;SDS011;3631;42.152;24.756;2022-12-24T01:30:05;80.57;;;40.53;;
7179;SDS011;3631;42.152;24.756;2022-12-24T01:32:35;69.30;;;37.53;;
7179;SDS011;3631;42.152;24.756;2022-12-24T01:35:02;72.67;;;37.43;;
7179;SDS011;3631;42.152;24.756;2022-12-24T01:37:29;70.47;;;36.63;;
7179;SDS011;3631;42.152;24.756;2022-12-24T01:39:55;67.37;;;36.13;;
7179;SDS011;3631;42.152;24.756;2022-12-24T01:42:45;70.33;;;36.40;;
7179;SDS011;3631;42.152;24.756;2022-12-24T01:48:19;66.77;;;35.47;;
7179;SDS011;3631;42.152;24.756;2022-12-24T01:50:52;65.93;;;35.67;;
7179;SDS011;3631;42.152;24.756;2022-12-24T01:53:29;65.20;;;33.57;;
7179;SDS011;3631;42.152;24.756;2022-12-24T01:56:00;60.80;;;34.80;;
7179;SDS011;3631;42.152;24.756;2022-12-24T01:58:30;63.63;;;35.33;;
7179;SDS011;3631;42.152;24.756;2022-12-24T02:01:00;63.63;;;34.83;;
7179;SDS011;3631;42.152;24.756;2022-12-24T02:03:27;67.70;;;35.80;;
7179;SDS011;3631;42.152;24.756;2022-12-24T02:05:54;62.67;;;35.40;;
7179;SDS011;3631;42.152;24.756;2022-12-24T02:08:23;69.17;;;35.77;;
7179;SDS011;3631;42.152;24.756;2022-12-24T02:11:07;77.07;;;37.37;;
7179;SDS011;3631;42.152;24.756;2022-12-24T02:13:37;74.77;;;38.23;;
7179;SDS011;3631;42.152;24.756;2022-12-24T02:16:05;71.13;;;36.60;;
7179;SDS011;3631;42.152;24.756;2022-12-24T02:18:43;74.73;;;37.43;;
7179;SDS011;3631;42.152;24.756;2022-12-24T02:21:29;78.00;;;38.33;;
7179;SDS011;3631;42.152;24.756;2022-12-24T02:24:21;67.87;;;37.07;;
7179;SDS011;3631;42.152;24.756;2022-12-24T02:27:18;73.93;;;37.93;;
7179;SDS011;3631;42.152;24.756;2022-12-24T02:32:44;68.87;;;36.77;;
7179;SDS011;3631;42.152;24.756;2022-12-24T02:35:30;68.20;;;37.57;;
7179;SDS011;3631;42.152;24.756;2022-12-24T02:38:03;74.77;;;38.73;;
7179;SDS011;3631;42.152;24.756;2022-12-24T02:40:37;79.70;;;37.67;;
7179;SDS011;3631;42.152;24.756;2022-12-24T02:43:08;77.87;;;38.47;;
7179;SDS011;3631;42.152;24.756;2022-12-24T02:45:40;84.77;;;39.27;;
7179;SDS011;3631;42.152;24.756;2022-12-24T02:48:11;67.93;;;37.33;;
7179;SDS011;3631;42.152;24.756;2022-12-24T02:50:52;73.83;;;37.70;;
7179;SDS011;3631;42.152;24.756;2022-12-24T02:53:20;72.73;;;37.87;;
7179;SDS011;3631;42.152;24.756;2022-12-24T02:55:49;74.40;;;38.97;;
7179;SDS011;3631;42.152;24.756;2022-12-24T02:58:27;73.90;;;38.07;;
7179;SDS011;3631;42.152;24.756;2022-12-24T03:01:05;71.10;;;38.70;;
7179;SDS011;3631;42.152;24.756;2022-12-24T03:03:46;72.97;;;38.07;;
7179;SDS011;3631;42.152;24.756;2022-12-24T03:06:23;69.87;;;37.50;;
7179;SDS011;3631;42.152;24.756;2022-12-24T03:09:01;76.97;;;37.30;;
7179;SDS011;3631;42.152;24.756;2022-12-24T03:11:34;74.50;;;37.97;;
7179;SDS011;3631;42.152;24.756;2022-12-24T03:14:04;71.93;;;37.87;;
7179;SDS011;3631;42.152;24.756;2022-12-24T03:16:32;79.17;;;39.93;;
7179;SDS011;3631;42.152;24.756;2022-12-24T03:19:00;72.30;;;38.80;;
7179;SDS011;3631;42.152;24.756;2022-12-24T03:21:28;81.17;;;39.13;;
7179;SDS011;3631;42.152;24.756;2022-12-24T03:23:58;68.10;;;37.97;;
7179;SDS011;3631;42.152;24.756;2022-12-24T03:26:25;76.90;;;39.13;;
7179;SDS011;3631;42.152;24.756;2022-12-24T03:28:55;66.93;;;37.37;;
7179;SDS011;3631;42.152;24.756;2022-12-24T03:31:22;71.03;;;39.50;;
7179;SDS011;3631;42.152;24.756;2022-12-24T03:33:50;72.40;;;39.07;;
7179;SDS011;3631;42.152;24.756;2022-12-24T03:36:17;75.93;;;38.87;;
7179;SDS011;3631;42.152;24.756;2022-12-24T03:38:44;71.53;;;38.60;;
7179;SDS011;3631;42.152;24.756;2022-12-24T03:41:11;73.17;;;38.27;;
7179;SDS011;3631;42.152;24.756;2022-12-24T03:43:38;76.27;;;37.83;;
7179;SDS011;3631;42.152;24.756;2022-12-24T03:46:05;78.90;;;40.00;;
7179;SDS011;3631;42.152;24.756;2022-12-24T03:48:33;85.37;;;42.30;;
7179;SDS011;3631;42.152;24.756;2022-12-24T03:51:02;82.07;;;41.63;;
7179;SDS011;3631;42.152;24.756;2022-12-24T03:53:29;87.83;;;42.83;;
7179;SDS011;3631;42.152;24.756;2022-12-24T03:55:56;78.93;;;41.90;;
7179;SDS011;3631;42.152;24.756;2022-12-24T03:58:24;75.87;;;39.43;;
7179;SDS011;3631;42.152;24.756;2022-12-24T04:00:51;77.37;;;40.33;;
7179;SDS011;3631;42.152;24.756;2022-12-24T04:03:18;85.07;;;42.17;;
7179;SDS011;3631;42.152;24.756;2022-12-24T04:05:45;81.73;;;40.77;;
7179;SDS011;3631;42.152;24.756;2022-12-24T04:08:13;84.80;;;41.10;;
7179;SDS011;3631;42.152;24.756;2022-12-24T04:10:40;76.63;;;40.97;;
7179;SDS011;3631;42.152;24.756;2022-12-24T04:13:07;77.73;;;41.20;;
7179;SDS011;3631;42.152;24.756;2022-12-24T04:15:34;78.70;;;40.73;;
7179;SDS011;3631;42.152;24.756;2022-12-24T04:18:01;77.60;;;39.47;;
7179;SDS011;3631;42.152;24.756;2022-12-24T04:20:28;72.57;;;39.03;;
7179;SDS011;3631;42.152;24.756;2022-12-24T04:22:55;81.43;;;41.93;;
7179;SDS011;3631;42.152;24.756;2022-12-24T04:25:23;79.87;;;39.67;;
7179;SDS011;3631;42.152;24.756;2022-12-24T04:27:50;83.00;;;40.07;;
7179;SDS011;3631;42.152;24.756;2022-12-24T04:30:17;79.30;;;39.90;;
7179;SDS011;3631;42.152;24.756;2022-12-24T04:32:44;71.97;;;38.97;;
7179;SDS011;3631;42.152;24.756;2022-12-24T04:35:11;71.30;;;39.73;;
7179;SDS011;3631;42.152;24.756;2022-12-24T04:37:38;78.30;;;40.60;;
7179;SDS011;3631;42.152;24.756;2022-12-24T04:40:05;71.07;;;39.17;;
7179;SDS011;3631;42.152;24.756;2022-12-24T04:42:34;76.23;;;40.47;;
7179;SDS011;3631;42.152;24.756;2022-12-24T04:45:01;82.00;;;42.70;;
7179;SDS011;3631;42.152;24.756;2022-12-24T04:47:28;75.27;;;39.37;;
7179;SDS011;3631;42.152;24.756;2022-12-24T04:49:55;75.77;;;39.93;;
7179;SDS011;3631;42.152;24.756;2022-12-24T04:52:22;75.57;;;41.30;;
7179;SDS011;3631;42.152;24.756;2022-12-24T04:54:49;78.00;;;42.83;;
7179;SDS011;3631;42.152;24.756;2022-12-24T04:57:15;78.67;;;41.67;;
7179;SDS011;3631;42.152;24.756;2022-12-24T04:59:44;75.97;;;40.33;;
7179;SDS011;3631;42.152;24.756;2022-12-24T05:02:11;73.87;;;41.43;;
7179;SDS011;3631;42.152;24.756;2022-12-24T05:04:38;78.30;;;43.20;;
7179;SDS011;3631;42.152;24.756;2022-12-24T05:07:05;77.43;;;39.63;;
7179;SDS011;3631;42.152;24.756;2022-12-24T05:09:31;71.93;;;38.80;;
7179;SDS011;3631;42.152;24.756;2022-12-24T05:11:58;72.23;;;38.10;;
7179;SDS011;3631;42.152;24.756;2022-12-24T05:14:25;67.63;;;36.17;;
7179;SDS011;3631;42.152;24.756;2022-12-24T05:16:54;65.17;;;35.80;;
7179;SDS011;3631;42.152;24.756;2022-12-24T05:19:21;72.13;;;37.93;;
7179;SDS011;3631;42.152;24.756;2022-12-24T05:21:48;68.53;;;35.93;;
7179;SDS011;3631;42.152;24.756;2022-12-24T05:24:35;70.77;;;37.90;;
7179;SDS011;3631;42.152;24.756;2022-12-24T05:27:18;55.33;;;31.50;;
7179;SDS011;3631;42.152;24.756;2022-12-24T05:29:46;55.97;;;31.50;;
7179;SDS011;3631;42.152;24.756;2022-12-24T05:32:14;54.57;;;32.70;;
7179;SDS011;3631;42.152;24.756;2022-12-24T05:34:41;74.37;;;38.03;;
7179;SDS011;3631;42.152;24.756;2022-12-24T05:37:08;69.53;;;35.23;;
7179;SDS011;3631;42.152;24.756;2022-12-24T05:39:34;71.80;;;36.63;;
7179;SDS011;3631;42.152;24.756;2022-12-24T05:42:01;69.63;;;37.40;;
7179;SDS011;3631;42.152;24.756;2022-12-24T05:44:28;74.07;;;35.47;;
7179;SDS011;3631;42.152;24.756;2022-12-24T05:46:55;67.30;;;37.73;;
7179;SDS011;3631;42.152;24.756;2022-12-24T05:49:24;66.90;;;35.73;;
7179;SDS011;3631;42.152;24.756;2022-12-24T05:51:50;78.13;;;38.80;;
7179;SDS011;3631;42.152;24.756;2022-12-24T05:54:17;79.37;;;38.20;;
7179;SDS011;3631;42.152;24.756;2022-12-24T05:56:44;79.60;;;39.47;;
7179;SDS011;3631;42.152;24.756;2022-12-24T05:59:11;74.87;;;39.50;;
7179;SDS011;3631;42.152;24.756;2022-12-24T06:01:38;83.67;;;37.80;;
7179;SDS011;3631;42.152;24.756;2022-12-24T06:04:09;73.00;;;38.07;;
7179;SDS011;3631;42.152;24.756;2022-12-24T06:06:37;74.63;;;38.40;;
7179;SDS011;3631;42.152;24.756;2022-12-24T06:09:04;70.63;;;38.73;;
7179;SDS011;3631;42.152;24.756;2022-12-24T06:11:31;68.57;;;37.30;;
7179;SDS011;3631;42.152;24.756;2022-12-24T06:13:58;73.47;;;39.77;;
7179;SDS011;3631;42.152;24.756;2022-12-24T06:16:25;76.80;;;41.03;;
7179;SDS011;3631;42.152;24.756;2022-12-24T06:18:52;79.77;;;41.60;;
7179;SDS011;3631;42.152;24.756;2022-12-24T06:21:19;85.57;;;41.30;;
7179;SDS011;3631;42.152;24.756;2022-12-24T06:23:48;82.30;;;41.77;;
7179;SDS011;3631;42.152;24.756;2022-12-24T06:26:15;82.43;;;41.70;;
7179;SDS011;3631;42.152;24.756;2022-12-24T06:28:44;81.47;;;41.63;;
7179;SDS011;3631;42.152;24.756;2022-12-24T06:31:12;86.03;;;44.50;;
7179;SDS011;3631;42.152;24.756;2022-12-24T06:33:41;86.00;;;43.93;;
7179;SDS011;3631;42.152;24.756;2022-12-24T06:36:09;101.60;;;47.23;;
7179;SDS011;3631;42.152;24.756;2022-12-24T06:38:40;91.20;;;46.10;;
7179;SDS011;3631;42.152;24.756;2022-12-24T06:41:08;106.33;;;51.67;;
7179;SDS011;3631;42.152;24.756;2022-12-24T06:43:35;110.00;;;52.57;;
7179;SDS011;3631;42.152;24.756;2022-12-24T06:46:02;123.10;;;54.33;;
7179;SDS011;3631;42.152;24.756;2022-12-24T06:48:29;120.80;;;56.47;;
7179;SDS011;3631;42.152;24.756;2022-12-24T06:50:56;130.30;;;58.73;;
7179;SDS011;3631;42.152;24.756;2022-12-24T06:53:23;123.60;;;60.20;;
7179;SDS011;3631;42.152;24.756;2022-12-24T06:55:50;126.50;;;57.43;;
7179;SDS011;3631;42.152;24.756;2022-12-24T06:58:18;154.13;;;66.60;;
7179;SDS011;3631;42.152;24.756;2022-12-24T07:00:46;209.03;;;103.80;;
7179;SDS011;3631;42.152;24.756;2022-12-24T07:03:13;190.70;;;96.70;;
7179;SDS011;3631;42.152;24.756;2022-12-24T07:05:40;156.43;;;77.03;;
7179;SDS011;3631;42.152;24.756;2022-12-24T07:08:07;155.77;;;77.07;;
7179;SDS011;3631;42.152;24.756;2022-12-24T07:10:34;149.73;;;69.97;;
7179;SDS011;3631;42.152;24.756;2022-12-24T07:13:01;156.00;;;76.67;;
7179;SDS011;3631;42.152;24.756;2022-12-24T07:15:30;218.23;;;98.93;;
7179;SDS011;3631;42.152;24.756;2022-12-24T07:17:56;180.67;;;84.33;;
7179;SDS011;3631;42.152;24.756;2022-12-24T07:20:23;185.80;;;83.20;;
7179;SDS011;3631;42.152;24.756;2022-12-24T07:22:50;116.87;;;57.77;;
7179;SDS011;3631;42.152;24.756;2022-12-24T07:25:17;116.70;;;54.73;;
7179;SDS011;3631;42.152;24.756;2022-12-24T07:27:44;92.27;;;49.37;;
7179;SDS011;3631;42.152;24.756;2022-12-24T07:30:11;106.67;;;55.87;;
7179;SDS011;3631;42.152;24.756;2022-12-24T07:32:39;100.23;;;52.03;;
7179;SDS011;3631;42.152;24.756;2022-12-24T07:35:07;93.10;;;48.73;;
7179;SDS011;3631;42.152;24.756;2022-12-24T07:37:34;83.73;;;44.57;;
7179;SDS011;3631;42.152;24.756;2022-12-24T07:40:01;76.17;;;41.17;;
7179;SDS011;3631;42.152;24.756;2022-12-24T07:42:32;81.03;;;42.97;;
7179;SDS011;3631;42.152;24.756;2022-12-24T07:44:59;79.77;;;43.27;;
7179;SDS011;3631;42.152;24.756;2022-12-24T07:47:26;80.07;;;43.90;;
7179;SDS011;3631;42.152;24.756;2022-12-24T07:49:54;87.27;;;43.40;;
7179;SDS011;3631;42.152;24.756;2022-12-24T07:52:21;93.07;;;45.17;;
7179;SDS011;3631;42.152;24.756;2022-12-24T07:54:48;78.83;;;42.07;;
7179;SDS011;3631;42.152;24.756;2022-12-24T07:57:15;84.23;;;40.63;;
7179;SDS011;3631;42.152;24.756;2022-12-24T07:59:42;79.67;;;41.77;;
7179;SDS011;3631;42.152;24.756;2022-12-24T08:02:08;70.03;;;39.77;;
7179;SDS011;3631;42.152;24.756;2022-12-24T08:04:36;72.33;;;39.33;;
7179;SDS011;3631;42.152;24.756;2022-12-24T08:07:05;67.33;;;38.90;;
7179;SDS011;3631;42.152;24.756;2022-12-24T08:09:33;61.83;;;36.17;;
7179;SDS011;3631;42.152;24.756;2022-12-24T08:12:00;64.87;;;36.53;;
7179;SDS011;3631;42.152;24.756;2022-12-24T08:14:28;67.30;;;36.67;;
7179;SDS011;3631;42.152;24.756;2022-12-24T08:16:55;59.80;;;35.20;;
7179;SDS011;3631;42.152;24.756;2022-12-24T08:19:23;52.93;;;32.03;;
7179;SDS011;3631;42.152;24.756;2022-12-24T08:21:50;56.57;;;32.17;;
7179;SDS011;3631;42.152;24.756;2022-12-24T08:24:18;53.33;;;32.50;;
7179;SDS011;3631;42.152;24.756;2022-12-24T08:26:45;57.47;;;32.50;;
7179;SDS011;3631;42.152;24.756;2022-12-24T08:29:12;55.30;;;32.40;;
7179;SDS011;3631;42.152;24.756;2022-12-24T08:31:40;54.93;;;32.07;;
7179;SDS011;3631;42.152;24.756;2022-12-24T08:34:07;48.50;;;30.53;;
7179;SDS011;3631;42.152;24.756;2022-12-24T08:36:35;56.13;;;30.03;;
7179;SDS011;3631;42.152;24.756;2022-12-24T08:39:02;49.60;;;29.23;;
7179;SDS011;3631;42.152;24.756;2022-12-24T08:41:31;42.77;;;26.93;;
7179;SDS011;3631;42.152;24.756;2022-12-24T08:43:58;44.73;;;28.40;;
7179;SDS011;3631;42.152;24.756;2022-12-24T08:46:25;41.90;;;28.43;;
7179;SDS011;3631;42.152;24.756;2022-12-24T08:48:52;50.80;;;27.73;;
7179;SDS011;3631;42.152;24.756;2022-12-24T08:51:19;48.07;;;28.63;;
7179;SDS011;3631;42.152;24.756;2022-12-24T08:53:46;43.27;;;26.50;;
7179;SDS011;3631;42.152;24.756;2022-12-24T08:56:13;43.50;;;27.83;;
7179;SDS011;3631;42.152;24.756;2022-12-24T08:58:41;51.03;;;31.37;;
7179;SDS011;3631;42.152;24.756;2022-12-24T09:01:11;52.17;;;32.17;;
7179;SDS011;3631;42.152;24.756;2022-12-24T09:03:39;51.30;;;31.50;;
7179;SDS011;3631;42.152;24.756;2022-12-24T09:06:07;65.50;;;33.27;;
7179;SDS011;3631;42.152;24.756;2022-12-24T09:08:34;52.17;;;31.03;;
7179;SDS011;3631;42.152;24.756;2022-12-24T09:11:04;56.70;;;32.53;;
7179;SDS011;3631;42.152;24.756;2022-12-24T09:13:32;66.23;;;37.23;;
7179;SDS011;3631;42.152;24.756;2022-12-24T09:16:01;64.67;;;39.23;;
7179;SDS011;3631;42.152;24.756;2022-12-24T09:18:28;61.77;;;37.90;;
7179;SDS011;3631;42.152;24.756;2022-12-24T09:20:59;60.43;;;37.07;;
7179;SDS011;3631;42.152;24.756;2022-12-24T09:23:26;56.97;;;33.70;;
7179;SDS011;3631;42.152;24.756;2022-12-24T09:25:53;59.03;;;33.20;;
7179;SDS011;3631;42.152;24.756;2022-12-24T09:28:20;47.63;;;30.33;;
7179;SDS011;3631;42.152;24.756;2022-12-24T09:30:54;50.63;;;30.33;;
7179;SDS011;3631;42.152;24.756;2022-12-24T09:33:24;56.03;;;31.90;;
7179;SDS011;3631;42.152;24.756;2022-12-24T09:35:51;47.77;;;28.80;;
7179;SDS011;3631;42.152;24.756;2022-12-24T09:38:18;46.87;;;27.00;;
7179;SDS011;3631;42.152;24.756;2022-12-24T09:40:45;43.83;;;25.63;;
7179;SDS011;3631;42.152;24.756;2022-12-24T09:43:13;34.27;;;22.67;;
7179;SDS011;3631;42.152;24.756;2022-12-24T09:45:44;32.83;;;22.13;;
7179;SDS011;3631;42.152;24.756;2022-12-24T09:48:16;30.97;;;21.83;;
7179;SDS011;3631;42.152;24.756;2022-12-24T09:50:50;34.00;;;22.73;;
7179;SDS011;3631;42.152;24.756;2022-12-24T09:53:23;38.37;;;22.50;;
7179;SDS011;3631;42.152;24.756;2022-12-24T09:55:55;35.73;;;22.90;;
7179;SDS011;3631;42.152;24.756;2022-12-24T09:58:25;37.83;;;23.70;;
7179;SDS011;3631;42.152;24.756;2022-12-24T10:00:56;40.47;;;25.03;;
7179;SDS011;3631;42.152;24.756;2022-12-24T10:03:23;47.80;;;26.03;;
7179;SDS011;3631;42.152;24.756;2022-12-24T10:05:54;37.63;;;24.47;;
7179;SDS011;3631;42.152;24.756;2022-12-24T10:08:31;36.63;;;24.47;;
7179;SDS011;3631;42.152;24.756;2022-12-24T10:11:10;35.43;;;23.13;;
7179;SDS011;3631;42.152;24.756;2022-12-24T10:13:51;33.77;;;21.77;;
7179;SDS011;3631;42.152;24.756;2022-12-24T10:16:28;31.53;;;21.27;;
7179;SDS011;3631;42.152;24.756;2022-12-24T10:19:04;36.60;;;22.23;;
7179;SDS011;3631;42.152;24.756;2022-12-24T10:21:43;33.53;;;23.03;;
7179;SDS011;3631;42.152;24.756;2022-12-24T10:24:22;34.40;;;23.70;;
7179;SDS011;3631;42.152;24.756;2022-12-24T10:26:54;37.03;;;23.03;;
7179;SDS011;3631;42.152;24.756;2022-12-24T10:29:26;36.37;;;23.47;;
7179;SDS011;3631;42.152;24.756;2022-12-24T10:31:57;37.03;;;23.97;;
7179;SDS011;3631;42.152;24.756;2022-12-24T10:34:31;44.47;;;23.33;;
7179;SDS011;3631;42.152;24.756;2022-12-24T10:37:03;46.03;;;25.13;;
7179;SDS011;3631;42.152;24.756;2022-12-24T10:39:31;39.37;;;25.67;;
7179;SDS011;3631;42.152;24.756;2022-12-24T10:41:58;36.13;;;25.63;;
7179;SDS011;3631;42.152;24.756;2022-12-24T10:44:27;41.37;;;25.00;;
7179;SDS011;3631;42.152;24.756;2022-12-24T10:46:57;34.87;;;22.90;;
7179;SDS011;3631;42.152;24.756;2022-12-24T10:49:26;44.67;;;26.77;;
7179;SDS011;3631;42.152;24.756;2022-12-24T10:51:58;39.40;;;24.97;;
7179;SDS011;3631;42.152;24.756;2022-12-24T10:54:30;49.60;;;30.67;;
7179;SDS011;3631;42.152;24.756;2022-12-24T10:57:03;34.73;;;24.93;;
7179;SDS011;3631;42.152;24.756;2022-12-24T10:59:35;47.37;;;27.03;;
7179;SDS011;3631;42.152;24.756;2022-12-24T11:02:24;44.20;;;26.80;;
7179;SDS011;3631;42.152;24.756;2022-12-24T11:04:52;45.73;;;29.20;;
7179;SDS011;3631;42.152;24.756;2022-12-24T11:07:20;54.43;;;32.80;;
7179;SDS011;3631;42.152;24.756;2022-12-24T11:09:54;64.53;;;33.50;;
7179;SDS011;3631;42.152;24.756;2022-12-24T11:12:24;53.67;;;32.97;;
7179;SDS011;3631;42.152;24.756;2022-12-24T11:14:58;51.47;;;30.20;;
7179;SDS011;3631;42.152;24.756;2022-12-24T11:17:27;46.00;;;29.20;;
7179;SDS011;3631;42.152;24.756;2022-12-24T11:19:54;49.37;;;28.73;;
7179;SDS011;3631;42.152;24.756;2022-12-24T11:22:22;55.67;;;29.27;;
7179;SDS011;3631;42.152;24.756;2022-12-24T11:24:57;182.67;;;84.80;;
7179;SDS011;3631;42.152;24.756;2022-12-24T11:27:29;109.57;;;56.23;;
7179;SDS011;3631;42.152;24.756;2022-12-24T11:30:15;65.67;;;39.67;;
7179;SDS011;3631;42.152;24.756;2022-12-24T11:32:49;58.17;;;32.13;;
7179;SDS011;3631;42.152;24.756;2022-12-24T11:35:33;49.23;;;30.70;;
7179;SDS011;3631;42.152;24.756;2022-12-24T11:38:10;51.17;;;32.50;;
7179;SDS011;3631;42.152;24.756;2022-12-24T11:40:42;47.67;;;31.20;;
7179;SDS011;3631;42.152;24.756;2022-12-24T11:43:13;55.03;;;32.77;;
7179;SDS011;3631;42.152;24.756;2022-12-24T11:45:46;55.53;;;32.13;;
7179;SDS011;3631;42.152;24.756;2022-12-24T11:48:23;51.23;;;33.33;;
7179;SDS011;3631;42.152;24.756;2022-12-24T11:50:54;56.03;;;32.93;;
7179;SDS011;3631;42.152;24.756;2022-12-24T11:53:24;55.70;;;33.67;;
7179;SDS011;3631;42.152;24.756;2022-12-24T11:55:58;69.27;;;35.97;;
7179;SDS011;3631;42.152;24.756;2022-12-24T11:58:29;63.73;;;36.73;;
7179;SDS011;3631;42.152;24.756;2022-12-24T12:01:08;70.37;;;39.47;;
7179;SDS011;3631;42.152;24.756;2022-12-24T12:03:41;72.37;;;42.33;;
7179;SDS011;3631;42.152;24.756;2022-12-24T12:06:22;70.30;;;41.10;;
7179;SDS011;3631;42.152;24.756;2022-12-24T12:08:54;69.23;;;41.53;;
7179;SDS011;3631;42.152;24.756;2022-12-24T12:11:26;64.70;;;40.43;;
7179;SDS011;3631;42.152;24.756;2022-12-24T12:13:54;68.80;;;41.53;;
7179;SDS011;3631;42.152;24.756;2022-12-24T12:16:24;66.03;;;40.77;;
7179;SDS011;3631;42.152;24.756;2022-12-24T12:19:16;69.93;;;40.00;;
7179;SDS011;3631;42.152;24.756;2022-12-24T12:21:48;70.00;;;40.20;;
7179;SDS011;3631;42.152;24.756;2022-12-24T12:24:18;60.47;;;37.47;;
7179;SDS011;3631;42.152;24.756;2022-12-24T12:26:55;68.63;;;38.20;;
7179;SDS011;3631;42.152;24.756;2022-12-24T12:29:30;68.17;;;41.20;;
7179;SDS011;3631;42.152;24.756;2022-12-24T12:32:01;71.73;;;40.73;;
7179;SDS011;3631;42.152;24.756;2022-12-24T12:34:33;65.70;;;38.67;;
7179;SDS011;3631;42.152;24.756;2022-12-24T12:37:05;55.97;;;35.50;;
7179;SDS011;3631;42.152;24.756;2022-12-24T12:39:37;61.43;;;35.83;;
7179;SDS011;3631;42.152;24.756;2022-12-24T12:42:06;59.47;;;35.77;;
7179;SDS011;3631;42.152;24.756;2022-12-24T12:44:44;61.00;;;35.33;;
7179;SDS011;3631;42.152;24.756;2022-12-24T12:47:27;54.23;;;33.20;;
7179;SDS011;3631;42.152;24.756;2022-12-24T12:50:07;53.87;;;33.50;;
7179;SDS011;3631;42.152;24.756;2022-12-24T12:52:42;55.87;;;32.93;;
7179;SDS011;3631;42.152;24.756;2022-12-24T12:55:26;53.07;;;32.03;;
7179;SDS011;3631;42.152;24.756;2022-12-24T12:58:07;62.60;;;32.37;;
7179;SDS011;3631;42.152;24.756;2022-12-24T13:00:43;46.67;;;30.80;;
7179;SDS011;3631;42.152;24.756;2022-12-24T13:03:23;55.27;;;31.57;;
7179;SDS011;3631;42.152;24.756;2022-12-24T13:06:19;47.17;;;29.67;;
7179;SDS011;3631;42.152;24.756;2022-12-24T13:09:18;48.40;;;30.60;;
7179;SDS011;3631;42.152;24.756;2022-12-24T13:12:29;47.63;;;30.53;;
7179;SDS011;3631;42.152;24.756;2022-12-24T13:18:18;51.83;;;30.50;;
7179;SDS011;3631;42.152;24.756;2022-12-24T13:20:54;52.20;;;30.27;;
7179;SDS011;3631;42.152;24.756;2022-12-24T13:23:22;53.60;;;32.57;;
7179;SDS011;3631;42.152;24.756;2022-12-24T13:25:50;60.50;;;33.50;;
7179;SDS011;3631;42.152;24.756;2022-12-24T13:28:32;64.47;;;32.33;;
7179;SDS011;3631;42.152;24.756;2022-12-24T13:33:53;57.43;;;32.53;;
7179;SDS011;3631;42.152;24.756;2022-12-24T13:36:21;59.87;;;32.40;;
7179;SDS011;3631;42.152;24.756;2022-12-24T13:38:49;53.87;;;31.50;;
7179;SDS011;3631;42.152;24.756;2022-12-24T13:44:13;62.30;;;33.00;;
7179;SDS011;3631;42.152;24.756;2022-12-24T13:46:51;51.97;;;31.57;;
7179;SDS011;3631;42.152;24.756;2022-12-24T13:49:26;56.80;;;31.87;;
7179;SDS011;3631;42.152;24.756;2022-12-24T13:54:59;55.60;;;33.27;;
7179;SDS011;3631;42.152;24.756;2022-12-24T13:57:38;164.90;;;69.30;;
7179;SDS011;3631;42.152;24.756;2022-12-24T14:00:21;163.00;;;70.90;;
7179;SDS011;3631;42.152;24.756;2022-12-24T14:02:53;181.03;;;78.73;;
7179;SDS011;3631;42.152;24.756;2022-12-24T14:05:26;145.90;;;65.17;;
7179;SDS011;3631;42.152;24.756;2022-12-24T14:07:58;134.83;;;58.93;;
7179;SDS011;3631;42.152;24.756;2022-12-24T14:10:27;124.87;;;54.50;;
7179;SDS011;3631;42.152;24.756;2022-12-24T14:12:57;110.03;;;53.33;;
7179;SDS011;3631;42.152;24.756;2022-12-24T14:18:24;114.20;;;49.10;;
7179;SDS011;3631;42.152;24.756;2022-12-24T14:20:53;95.67;;;50.33;;
7179;SDS011;3631;42.152;24.756;2022-12-24T14:23:26;96.33;;;51.27;;
7179;SDS011;3631;42.152;24.756;2022-12-24T14:25:59;102.00;;;52.50;;
7179;SDS011;3631;42.152;24.756;2022-12-24T14:28:30;100.63;;;52.40;;
7179;SDS011;3631;42.152;24.756;2022-12-24T14:31:02;91.43;;;49.83;;
7179;SDS011;3631;42.152;24.756;2022-12-24T14:33:39;94.70;;;49.97;;
7179;SDS011;3631;42.152;24.756;2022-12-24T14:36:07;98.50;;;49.20;;
7179;SDS011;3631;42.152;24.756;2022-12-24T14:38:38;87.43;;;49.20;;
7179;SDS011;3631;42.152;24.756;2022-12-24T14:41:07;98.43;;;49.63;;
7179;SDS011;3631;42.152;24.756;2022-12-24T14:43:49;98.90;;;52.13;;
7179;SDS011;3631;42.152;24.756;2022-12-24T14:46:23;98.10;;;53.03;;
7179;SDS011;3631;42.152;24.756;2022-12-24T14:48:56;118.17;;;59.80;;
7179;SDS011;3631;42.152;24.756;2022-12-24T14:51:32;100.23;;;55.40;;
7179;SDS011;3631;42.152;24.756;2022-12-24T14:54:15;98.07;;;54.10;;
7179;SDS011;3631;42.152;24.756;2022-12-24T14:57:05;97.23;;;54.23;;
7179;SDS011;3631;42.152;24.756;2022-12-24T14:59:39;104.87;;;54.37;;
7179;SDS011;3631;42.152;24.756;2022-12-24T15:05:11;252.40;;;117.67;;
7179;SDS011;3631;42.152;24.756;2022-12-24T15:07:43;247.47;;;110.37;;
7179;SDS011;3631;42.152;24.756;2022-12-24T15:10:22;236.57;;;110.83;;
7179;SDS011;3631;42.152;24.756;2022-12-24T15:12:52;361.17;;;198.57;;
7179;SDS011;3631;42.152;24.756;2022-12-24T15:15:21;311.40;;;157.57;;
7179;SDS011;3631;42.152;24.756;2022-12-24T15:17:49;226.27;;;112.33;;